createdAt,value
2022-09-04T00:00:10.975Z,4.85
2022-09-04T00:03:47.155Z,2.20
2022-09-04T00:07:34.433Z,2.30
2022-09-04T00:11:22.893Z,3.53
2022-09-04T00:14:56.911Z,2.42
2022-09-04T00:18:35.388Z,5.40
2022-09-04T00:22:00.314Z,3.28
2022-09-04T00:25:41.100Z,3.33
2022-09-04T00:29:12.004Z,3.17
2022-09-04T00:33:04.508Z,5.63
2022-09-04T00:36:28.348Z,5.97
2022-09-04T00:40:06.146Z,2.78
2022-09-04T00:43:31.429Z,5.10
2022-09-04T00:47:15.385Z,5.53
2022-09-04T00:50:52.641Z,4.53
2022-09-04T00:54:26.822Z,4.45
2022-09-04T00:58:16.421Z,2.95
2022-09-04T01:01:39.099Z,7.00
2022-09-04T01:05:32.154Z,4.57
2022-09-04T01:09:22.325Z,5.45
2022-09-04T01:12:45.511Z,6.18
2022-09-04T01:16:20.101Z,4.32
2022-09-04T01:19:49.707Z,1.70
2022-09-04T01:23:31.034Z,4.78
2022-09-04T01:27:18.014Z,1.75
2022-09-04T01:30:54.477Z,1.88
2022-09-04T01:34:35.425Z,2.22
2022-09-04T01:38:22.345Z,4.15
2022-09-04T01:42:00.193Z,1.98
2022-09-04T01:45:43.062Z,1.90
2022-09-04T01:49:23.533Z,8.70
2022-09-04T01:52:45.687Z,5.15
2022-09-04T01:56:24.640Z,3.80
2022-09-04T02:00:15.574Z,4.90
2022-09-04T02:03:58.200Z,4.43
2022-09-04T02:07:26.320Z,1.33
2022-09-04T02:11:12.236Z,1.00
2022-09-04T02:14:51.093Z,3.65
2022-09-04T02:18:45.467Z,7.10
2022-09-04T02:22:29.390Z,1.05
2022-09-04T02:26:07.246Z,2.15
2022-09-04T02:29:44.530Z,3.72
2022-09-04T02:33:35.441Z,4.40
2022-09-04T02:37:49.684Z,5.97
2022-09-04T02:41:34.072Z,2.15
2022-09-04T02:45:07.797Z,2.58
2022-09-04T02:48:47.786Z,3.17
2022-09-04T02:52:27.654Z,1.52
2022-09-04T02:55:58.764Z,4.95
2022-09-04T02:59:38.078Z,4.50
2022-09-04T03:03:15.085Z,2.15
2022-09-04T03:06:54.654Z,2.58
2022-09-04T03:10:26.624Z,4.45
2022-09-04T03:14:26.731Z,4.25
2022-09-04T03:18:07.793Z,6.43
2022-09-04T03:21:52.517Z,2.75
2022-09-04T03:25:45.741Z,3.17
2022-09-04T03:29:35.009Z,3.78
2022-09-04T03:33:21.574Z,1.98
2022-09-04T03:37:04.279Z,1.80
2022-09-04T03:40:50.079Z,3.10
2022-09-04T03:44:15.237Z,3.15
2022-09-04T03:47:46.650Z,2.08
2022-09-04T03:51:39.842Z,3.63
2022-09-04T03:55:14.272Z,4.82
2022-09-04T03:58:45.150Z,2.33
2022-09-04T04:02:26.305Z,6.35
2022-09-04T04:06:07.079Z,5.85
2022-09-04T04:10:03.373Z,3.30
2022-09-04T04:13:55.160Z,4.15
2022-09-04T04:17:35.934Z,3.55
2022-09-04T04:21:22.946Z,5.80
2022-09-04T04:25:12.441Z,2.20
2022-09-04T04:28:57.043Z,2.10
2022-09-04T04:32:41.167Z,3.35
2022-09-04T04:36:35.802Z,2.08
2022-09-04T04:40:10.437Z,6.65
2022-09-04T04:43:44.613Z,4.05
2022-09-04T04:47:15.775Z,6.45
2022-09-04T04:50:59.597Z,2.28
2022-09-04T04:54:40.273Z,3.95
2022-09-04T04:58:27.210Z,4.22
2022-09-04T05:02:07.723Z,2.45
2022-09-04T05:05:55.215Z,3.00
2022-09-04T05:09:44.495Z,9.23
2022-09-04T05:13:24.813Z,2.65
2022-09-04T05:17:13.710Z,7.47
2022-09-04T05:20:49.629Z,2.95
2022-09-04T05:24:44.336Z,2.00
2022-09-04T05:28:20.461Z,5.00
2022-09-04T05:31:53.666Z,3.75
2022-09-04T05:35:31.935Z,5.22
2022-09-04T05:39:30.935Z,4.40
2022-09-04T05:43:42.349Z,4.10
2022-09-04T05:47:13.165Z,5.47
2022-09-04T05:50:57.693Z,3.45
2022-09-04T05:54:31.997Z,2.80
2022-09-04T05:58:30.727Z,4.18
2022-09-04T06:02:22.109Z,1.83
2022-09-04T06:06:13.947Z,6.70
2022-09-04T06:09:58.554Z,1.95
2022-09-04T06:13:31.014Z,2.92
2022-09-04T06:17:00.513Z,6.75
2022-09-04T06:20:57.981Z,3.15
2022-09-04T06:24:59.385Z,5.95
2022-09-04T06:28:27.039Z,1.73
2022-09-04T06:32:09.649Z,5.15
2022-09-04T06:36:05.624Z,4.40
2022-09-04T06:43:05.684Z,3.53
2022-09-04T06:46:42.387Z,3.70
2022-09-04T06:50:26.675Z,2.70
2022-09-04T06:53:57.188Z,4.20
2022-09-04T06:57:25.106Z,4.82
2022-09-04T07:01:00.676Z,2.88
2022-09-04T07:04:44.985Z,5.40
2022-09-04T07:08:35.266Z,3.45
2022-09-04T07:12:18.796Z,4.55
2022-09-04T07:15:58.821Z,3.58
2022-09-04T07:19:57.945Z,5.53
2022-09-04T07:23:35.925Z,4.03
2022-09-04T07:27:28.169Z,6.70
2022-09-04T07:31:17.141Z,1.73
2022-09-04T07:34:42.152Z,5.38
2022-09-04T07:38:15.784Z,3.10
2022-09-04T07:41:51.780Z,2.85
2022-09-04T07:45:38.481Z,4.43
2022-09-04T07:49:10.123Z,3.78
2022-09-04T07:53:00.207Z,5.80
2022-09-04T07:56:27.341Z,3.83
2022-09-04T07:59:59.178Z,2.42
2022-09-04T08:03:54.411Z,2.40
2022-09-04T08:07:37.970Z,3.40
2022-09-04T08:11:09.101Z,4.75
2022-09-04T08:14:54.407Z,2.17
2022-09-04T08:18:38.277Z,7.30
2022-09-04T08:22:03.043Z,3.67
2022-09-04T08:25:31.614Z,3.75
2022-09-04T08:29:14.813Z,4.75
2022-09-04T08:32:43.139Z,1.25
2022-09-04T08:36:27.532Z,5.05
2022-09-04T08:40:20.770Z,6.35
2022-09-04T08:44:04.494Z,1.83
2022-09-04T08:47:38.764Z,2.95
2022-09-04T08:51:40.047Z,2.17
2022-09-04T08:55:33.194Z,2.05
2022-09-04T08:59:07.537Z,2.80
2022-09-04T09:02:44.791Z,2.78
2022-09-04T09:06:55.574Z,4.93
2022-09-04T09:10:42.977Z,4.90
2022-09-04T09:14:41.923Z,1.58
2022-09-04T09:18:23.130Z,2.88
2022-09-04T09:21:48.282Z,2.42
2022-09-04T09:25:36.141Z,2.90
2022-09-04T09:29:04.126Z,5.10
2022-09-04T09:32:56.635Z,1.25
2022-09-04T09:36:46.562Z,2.75
2022-09-04T09:40:11.511Z,3.17
2022-09-04T09:47:20.825Z,1.70
2022-09-04T09:50:49.249Z,3.28
2022-09-04T09:54:14.686Z,2.65
2022-09-04T09:58:01.597Z,3.67
2022-09-04T10:01:48.535Z,4.60
2022-09-04T10:05:38.932Z,4.50
2022-09-04T10:09:26.072Z,1.95
2022-09-04T10:13:22.074Z,5.47
2022-09-04T10:17:08.950Z,7.38
2022-09-04T10:20:39.938Z,15.32
2022-09-04T10:24:21.899Z,52.92
2022-09-04T10:28:04.862Z,68.65
2022-09-04T10:31:27.149Z,56.67
2022-09-04T10:35:21.269Z,44.90
2022-09-04T10:39:07.838Z,43.58
2022-09-04T10:43:10.084Z,21.33
2022-09-04T10:46:43.252Z,24.75
2022-09-04T10:50:30.283Z,17.80
2022-09-04T10:53:56.557Z,14.70
2022-09-04T10:57:42.062Z,5.40
2022-09-04T11:04:59.367Z,6.22
2022-09-04T11:09:00.564Z,3.67
2022-09-04T11:12:45.908Z,2.70
2022-09-04T11:16:10.908Z,4.07
2022-09-04T11:20:16.127Z,4.75
2022-09-04T11:24:15.398Z,3.72
2022-09-04T11:27:53.241Z,3.05
2022-09-04T11:31:59.872Z,2.13
2022-09-04T11:35:40.565Z,1.20
2022-09-04T11:39:26.135Z,4.43
2022-09-04T11:43:13.872Z,6.28
2022-09-04T11:46:49.525Z,4.72
2022-09-04T11:50:43.660Z,3.13
2022-09-04T11:54:19.456Z,1.65
2022-09-04T11:57:50.317Z,2.92
2022-09-04T12:01:31.190Z,2.45
2022-09-04T12:05:39.432Z,1.60
2022-09-04T12:09:26.207Z,3.90
2022-09-04T12:13:25.754Z,2.45
2022-09-04T12:17:03.042Z,1.58
2022-09-04T12:20:30.918Z,4.75
2022-09-04T12:23:53.146Z,2.30
2022-09-04T12:27:27.162Z,5.30
2022-09-04T12:31:20.745Z,1.23
2022-09-04T12:35:01.744Z,3.95
2022-09-04T12:38:47.166Z,1.08
2022-09-04T12:45:53.356Z,3.30
2022-09-04T12:49:26.115Z,4.40
2022-09-04T12:53:06.261Z,6.10
2022-09-04T12:56:49.452Z,1.77
2022-09-04T13:00:16.815Z,3.85
2022-09-04T13:03:47.737Z,5.78
2022-09-04T13:07:21.026Z,2.45
2022-09-04T13:10:56.657Z,5.00
2022-09-04T13:14:47.907Z,10.48
2022-09-04T13:18:41.084Z,1.33
2022-09-04T13:22:28.157Z,1.30
2022-09-04T13:26:09.122Z,1.67
2022-09-04T13:30:03.064Z,3.75
2022-09-04T13:33:39.856Z,1.83
2022-09-04T13:37:21.297Z,2.25
2022-09-04T13:41:13.982Z,1.05
2022-09-04T13:44:50.053Z,2.65
2022-09-04T13:48:20.232Z,2.60
2022-09-04T13:51:51.656Z,5.43
2022-09-04T13:55:22.685Z,2.85
2022-09-04T13:58:49.569Z,3.28
2022-09-04T14:02:14.728Z,1.48
2022-09-04T14:05:37.796Z,1.63
2022-09-04T14:09:04.713Z,2.80
2022-09-04T14:12:55.066Z,0.90
2022-09-04T14:16:18.907Z,2.35
2022-09-04T14:19:46.922Z,1.05
2022-09-04T14:23:24.327Z,3.80
2022-09-04T14:26:59.809Z,2.53
2022-09-04T14:30:23.049Z,1.35
2022-09-04T14:34:04.845Z,3.22
2022-09-04T14:37:50.158Z,3.15
2022-09-04T14:41:32.838Z,2.67
2022-09-04T14:45:36.976Z,3.78
2022-09-04T14:49:06.812Z,1.23
2022-09-04T14:52:37.859Z,1.42
2022-09-04T14:56:08.009Z,2.35
2022-09-04T14:59:41.331Z,2.58
2022-09-04T15:03:17.270Z,4.88
2022-09-04T15:07:09.789Z,1.52
2022-09-04T15:10:50.368Z,0.85
2022-09-04T15:14:47.653Z,2.70
2022-09-04T15:18:17.946Z,3.45
2022-09-04T15:21:53.317Z,1.95
2022-09-04T15:25:18.174Z,1.98
2022-09-04T15:28:46.309Z,2.97
2022-09-04T15:32:14.037Z,1.85
2022-09-04T15:35:38.714Z,2.13
2022-09-04T15:39:04.938Z,2.58
2022-09-04T15:42:35.304Z,2.15
2022-09-04T15:46:06.841Z,1.00
2022-09-04T15:49:40.216Z,3.90
2022-09-04T15:53:30.790Z,1.17
2022-09-04T15:56:52.925Z,2.40
2022-09-04T16:00:20.492Z,2.03
2022-09-04T16:04:01.125Z,1.00
2022-09-04T16:07:39.374Z,2.85
2022-09-04T16:11:11.694Z,2.22
2022-09-04T16:14:48.450Z,2.47
2022-09-04T16:18:19.690Z,2.20
2022-09-04T16:21:53.834Z,1.23
2022-09-04T16:25:19.167Z,1.88
2022-09-04T16:28:56.162Z,1.25
2022-09-04T16:32:22.138Z,2.15
2022-09-04T16:35:45.022Z,1.48
2022-09-04T16:39:31.984Z,0.90
2022-09-04T16:43:15.357Z,1.33
2022-09-04T16:46:40.821Z,1.27
2022-09-04T16:50:23.675Z,1.75
2022-09-04T16:54:05.269Z,1.15
2022-09-04T16:57:34.165Z,1.75
2022-09-04T17:01:28.166Z,2.47
2022-09-04T17:04:59.957Z,5.38
2022-09-04T17:08:34.436Z,6.40
2022-09-04T17:12:19.606Z,1.38
2022-09-04T17:16:03.800Z,1.48
2022-09-04T17:19:27.552Z,2.05
2022-09-04T17:29:00.159Z,3.90
2022-09-04T17:29:16.211Z,2.55
2022-09-04T17:30:40.371Z,3.92
2022-09-04T17:40:36.253Z,1.73
2022-09-04T17:40:55.607Z,1.35
2022-09-04T17:42:42.132Z,3.17
2022-09-04T17:46:32.306Z,1.15
2022-09-04T17:49:56.325Z,4.72
2022-09-04T17:53:33.713Z,1.70
2022-09-04T17:57:18.437Z,1.98
2022-09-04T18:01:14.674Z,2.40
2022-09-04T18:04:47.185Z,1.70
2022-09-04T18:08:13.095Z,3.60
2022-09-04T18:12:13.258Z,2.55
2022-09-04T18:15:49.077Z,4.35
2022-09-04T18:19:38.330Z,1.48
2022-09-04T18:23:06.221Z,1.20
2022-09-04T18:26:42.645Z,4.97
2022-09-04T18:35:10.922Z,2.67
2022-09-04T18:37:25.133Z,2.50
2022-09-04T18:38:20.385Z,1.40
2022-09-04T18:44:25.811Z,2.58
2022-09-04T18:50:25.371Z,1.73
2022-09-04T18:50:29.883Z,3.30
2022-09-04T18:53:22.046Z,2.55
2022-09-04T18:56:47.911Z,2.83
2022-09-04T19:00:13.469Z,1.83
2022-09-04T19:03:57.577Z,2.08
2022-09-04T19:07:38.806Z,3.72
2022-09-04T19:11:14.398Z,4.53
2022-09-04T19:14:44.217Z,4.93
2022-09-04T19:18:45.456Z,2.00
2022-09-04T19:22:19.285Z,1.92
2022-09-04T19:25:54.778Z,1.70
2022-09-04T19:29:38.490Z,2.50
2022-09-04T19:33:16.535Z,2.45
2022-09-04T19:37:54.351Z,2.20
2022-09-04T19:46:08.793Z,3.15
2022-09-04T19:46:19.269Z,2.70
2022-09-04T19:48:25.624Z,2.28
2022-09-04T19:53:33.360Z,4.18
2022-09-04T19:56:30.127Z,3.08
2022-09-04T20:00:38.390Z,1.95
2022-09-04T20:04:02.432Z,6.70
2022-09-04T20:07:47.656Z,5.47
2022-09-04T20:11:34.592Z,4.55
2022-09-04T20:15:13.756Z,2.88
2022-09-04T20:18:50.076Z,2.10
2022-09-04T20:22:26.542Z,1.83
2022-09-04T20:26:04.986Z,4.03
2022-09-04T20:29:54.914Z,6.20
2022-09-04T20:33:26.278Z,8.35
2022-09-04T20:37:01.053Z,3.17
2022-09-04T20:40:41.354Z,4.30
2022-09-04T20:44:28.881Z,3.85
2022-09-04T20:52:52.414Z,3.53
2022-09-04T20:53:04.258Z,1.58
2022-09-04T20:55:38.932Z,2.10
2022-09-04T21:03:14.434Z,4.22
2022-09-04T21:03:34.243Z,6.45
2022-09-04T21:07:02.753Z,3.65
2022-09-04T21:10:27.796Z,4.60
2022-09-04T21:17:49.581Z,4.07
2022-09-04T21:21:41.870Z,3.05
2022-09-04T21:25:18.392Z,4.00
2022-09-04T21:29:11.107Z,3.15
2022-09-04T21:33:27.886Z,18.15
2022-09-04T21:37:02.657Z,3.80
2022-09-04T21:40:51.500Z,3.47
2022-09-04T21:44:34.523Z,1.88
2022-09-04T21:48:18.039Z,3.15
2022-09-04T21:52:05.117Z,2.92
2022-09-04T21:58:22.988Z,3.92
2022-09-04T22:02:44.440Z,2.95
2022-09-04T22:04:23.406Z,1.98
2022-09-04T22:13:28.412Z,2.43
2022-09-04T22:13:43.728Z,2.85
2022-09-04T22:16:13.487Z,5.70
2022-09-04T22:19:35.838Z,2.25
2022-09-04T22:23:28.693Z,3.95
2022-09-04T22:27:08.684Z,4.53
2022-09-04T22:30:56.048Z,2.75
2022-09-04T22:34:30.126Z,1.60
2022-09-04T22:38:17.581Z,2.20
2022-09-04T22:42:20.532Z,5.28
2022-09-04T22:46:08.618Z,2.15
2022-09-04T22:50:06.365Z,6.00
2022-09-04T22:53:34.660Z,1.45
2022-09-04T22:57:06.463Z,2.20
2022-09-04T23:00:44.218Z,4.57
2022-09-04T23:04:21.562Z,3.65
2022-09-04T23:13:01.358Z,6.85
2022-09-04T23:13:52.005Z,1.35
2022-09-04T23:16:17.947Z,3.05
2022-09-04T23:23:26.109Z,6.35
2022-09-04T23:26:58.017Z,4.68
2022-09-04T23:28:27.456Z,5.55
2022-09-04T23:32:13.242Z,2.67
2022-09-04T23:35:45.599Z,2.30
2022-09-04T23:39:44.967Z,4.03
2022-09-04T23:43:28.740Z,3.67
2022-09-04T23:47:00.163Z,3.92
2022-09-04T23:50:41.355Z,2.75
2022-09-04T23:54:12.720Z,3.90
2022-09-04T23:58:20.906Z,3.58
